createdAt,value
2022-10-11T00:02:47.390Z,8.70
2022-10-11T00:08:05.545Z,8.70
2022-10-11T00:13:20.555Z,8.60
2022-10-11T00:18:35.590Z,8.40
2022-10-11T00:23:50.924Z,8.30
2022-10-11T00:29:05.891Z,8.30
2022-10-11T00:34:20.559Z,8.40
2022-10-11T00:39:35.608Z,8.30
2022-10-11T00:44:51.308Z,8.20
2022-10-11T00:50:10.993Z,8.20
2022-10-11T00:55:33.377Z,8.10
2022-10-11T01:00:48.485Z,8.00
2022-10-11T01:06:04.027Z,8.00
2022-10-11T01:11:24.016Z,8.10
2022-10-11T01:17:07.145Z,8.00
2022-10-11T01:22:27.940Z,8.10
2022-10-11T01:27:51.831Z,8.00
2022-10-11T01:33:23.700Z,7.90
2022-10-11T01:38:51.547Z,7.70
2022-10-11T01:44:09.367Z,7.60
2022-10-11T01:49:24.986Z,7.50
2022-10-11T01:55:32.165Z,7.50
2022-10-11T02:01:20.235Z,7.40
2022-10-11T02:06:57.009Z,7.50
2022-10-11T02:12:15.415Z,7.40
2022-10-11T02:17:35.941Z,7.20
2022-10-11T02:22:57.843Z,7.10
2022-10-11T02:28:19.265Z,7.20
2022-10-11T02:33:40.257Z,7.10
2022-10-11T02:39:18.549Z,7.20
2022-10-11T02:44:41.066Z,7.20
2022-10-11T02:49:58.739Z,7.00
2022-10-11T02:55:13.439Z,6.70
2022-10-11T03:00:28.871Z,6.60
2022-10-11T03:05:45.246Z,6.60
2022-10-11T03:11:01.587Z,6.70
2022-10-11T03:16:16.705Z,6.80
2022-10-11T03:21:31.596Z,6.80
2022-10-11T03:26:46.602Z,6.80
2022-10-11T03:32:01.701Z,6.80
2022-10-11T03:37:16.689Z,6.70
2022-10-11T03:42:31.620Z,6.60
2022-10-11T03:47:46.611Z,6.50
2022-10-11T03:53:01.706Z,6.50
2022-10-11T03:58:16.558Z,6.50
2022-10-11T04:03:31.624Z,6.60
2022-10-11T04:08:46.650Z,6.50
2022-10-11T04:14:02.233Z,6.50
2022-10-11T04:19:18.244Z,6.40
2022-10-11T04:24:33.263Z,6.40
2022-10-11T04:29:48.178Z,6.40
2022-10-11T04:35:04.727Z,6.30
2022-10-11T04:40:19.767Z,6.20
2022-10-11T04:45:34.783Z,6.20
2022-10-11T04:50:49.766Z,6.10
2022-10-11T04:56:11.238Z,6.10
2022-10-11T05:01:26.127Z,6.00
2022-10-11T05:06:41.140Z,5.80
2022-10-11T05:11:56.172Z,5.80
2022-10-11T05:17:11.160Z,5.80
2022-10-11T05:22:26.134Z,5.80
2022-10-11T05:27:41.144Z,5.80
2022-10-11T05:32:56.117Z,5.90
2022-10-11T05:38:11.264Z,5.80
2022-10-11T05:43:26.441Z,5.80
2022-10-11T05:48:41.245Z,5.70
2022-10-11T05:53:56.120Z,5.80
2022-10-11T05:59:11.103Z,5.80
2022-10-11T06:04:26.116Z,5.80
2022-10-11T06:09:41.093Z,5.70
2022-10-11T06:14:56.059Z,5.60
2022-10-11T06:20:27.884Z,5.50
2022-10-11T06:26:09.140Z,5.50
2022-10-11T06:31:37.967Z,5.50
2022-10-11T06:37:07.454Z,5.40
2022-10-11T06:42:36.799Z,5.50
2022-10-11T06:48:06.477Z,5.50
2022-10-11T06:53:35.629Z,5.50
2022-10-11T06:59:05.170Z,5.50
2022-10-11T07:04:37.255Z,5.50
2022-10-11T07:10:10.045Z,5.60
2022-10-11T07:15:42.412Z,5.80
2022-10-11T07:21:13.869Z,5.80
2022-10-11T07:26:46.750Z,5.80
2022-10-11T07:32:16.614Z,5.80
2022-10-11T07:37:48.689Z,5.90
2022-10-11T07:43:17.784Z,6.00
2022-10-11T07:48:47.212Z,6.10
2022-10-11T07:54:20.197Z,6.30
2022-10-11T07:59:52.811Z,6.40
2022-10-11T08:05:27.596Z,6.50
2022-10-11T08:11:00.280Z,6.70
2022-10-11T08:16:36.854Z,6.80
2022-10-11T08:22:09.633Z,7.00
2022-10-11T08:27:50.469Z,7.20
2022-10-11T08:33:31.615Z,7.30
2022-10-11T08:39:10.120Z,7.60
2022-10-11T08:45:22.866Z,7.70
2022-10-11T08:50:46.213Z,7.90
2022-10-11T08:55:54.890Z,8.10
2022-10-11T09:00:57.988Z,8.30
2022-10-11T09:06:30.540Z,8.50
2022-10-11T09:11:51.221Z,8.70
2022-10-11T09:17:16.493Z,9.00
2022-10-11T09:22:36.727Z,9.20
2022-10-11T09:28:01.650Z,9.50
2022-10-11T09:33:18.098Z,9.70
2022-10-11T09:38:42.030Z,10.20
2022-10-11T09:43:51.913Z,10.80
2022-10-11T09:48:55.930Z,11.40
2022-10-11T09:54:05.506Z,11.70
2022-10-11T09:59:09.716Z,12.30
2022-10-11T10:04:16.982Z,12.60
2022-10-11T10:09:30.457Z,12.70
2022-10-11T10:14:32.831Z,12.80
2022-10-11T10:19:56.097Z,12.90
2022-10-11T10:25:01.966Z,13.10
2022-10-11T10:30:10.627Z,13.30
2022-10-11T10:35:17.032Z,13.40
2022-10-11T10:40:29.034Z,13.60
2022-10-11T10:45:56.911Z,13.90
2022-10-11T10:51:36.248Z,14.20
2022-10-11T10:56:50.108Z,14.60
2022-10-11T11:02:28.153Z,14.90
2022-10-11T11:07:41.400Z,14.90
2022-10-11T11:12:46.361Z,15.20
2022-10-11T11:18:07.449Z,15.60
2022-10-11T11:23:21.950Z,15.90
2022-10-11T11:28:48.327Z,15.60
2022-10-11T11:33:59.321Z,15.70
2022-10-11T11:39:06.988Z,15.90
2022-10-11T11:44:17.725Z,16.10
2022-10-11T11:49:32.023Z,16.10
2022-10-11T11:55:01.466Z,16.30
2022-10-11T12:00:22.367Z,16.70
2022-10-11T12:05:30.918Z,17.10
2022-10-11T12:10:35.135Z,17.50
2022-10-11T12:15:37.815Z,17.50
2022-10-11T12:20:42.171Z,17.80
2022-10-11T12:25:45.205Z,17.90
2022-10-11T12:30:47.540Z,17.90
2022-10-11T12:35:55.920Z,17.90
2022-10-11T12:41:18.290Z,17.90
2022-10-11T12:46:29.516Z,18.40
2022-10-11T12:51:59.760Z,18.50
2022-10-11T12:57:32.708Z,18.50
2022-10-11T13:02:44.616Z,18.70
2022-10-11T13:07:47.160Z,18.80
2022-10-11T13:12:49.950Z,19.00
2022-10-11T13:17:59.726Z,19.20
2022-10-11T13:23:01.880Z,19.20
2022-10-11T13:28:08.777Z,19.30
2022-10-11T13:33:32.464Z,19.00
2022-10-11T13:38:36.748Z,18.90
2022-10-11T13:43:40.711Z,19.10
2022-10-11T13:48:42.849Z,19.30
2022-10-11T13:54:08.464Z,19.60
2022-10-11T13:59:22.801Z,19.80
2022-10-11T14:04:29.493Z,19.50
2022-10-11T14:09:38.651Z,19.40
2022-10-11T14:14:42.807Z,19.50
2022-10-11T14:19:47.018Z,19.50
2022-10-11T14:24:49.205Z,19.50
2022-10-11T14:30:19.889Z,20.10
2022-10-11T14:35:22.617Z,20.00
2022-10-11T14:40:27.670Z,19.80
2022-10-11T14:45:29.811Z,19.70
2022-10-11T14:50:51.093Z,19.30
2022-10-11T14:55:53.690Z,19.70
2022-10-11T15:00:55.776Z,19.50
2022-10-11T15:05:58.021Z,19.40
2022-10-11T15:11:00.095Z,19.50
2022-10-11T15:16:03.415Z,19.50
2022-10-11T15:21:06.181Z,19.50
2022-10-11T15:26:13.471Z,19.30
2022-10-11T15:31:16.156Z,19.40
2022-10-11T15:36:21.508Z,19.50
2022-10-11T15:41:24.058Z,19.70
2022-10-11T15:46:26.142Z,19.40
2022-10-11T15:51:28.279Z,19.60
2022-10-11T15:56:33.708Z,19.20
2022-10-11T16:01:36.112Z,19.20
2022-10-11T16:06:38.294Z,19.00
2022-10-11T16:11:40.358Z,18.80
2022-10-11T16:16:42.390Z,18.90
2022-10-11T16:21:44.500Z,18.70
2022-10-11T16:26:46.725Z,18.60
2022-10-11T16:31:49.124Z,18.50
2022-10-11T16:36:51.261Z,18.20
2022-10-11T16:41:53.632Z,17.80
2022-10-11T16:46:55.875Z,17.60
2022-10-11T16:51:59.623Z,17.30
2022-10-11T16:57:01.744Z,17.10
2022-10-11T17:02:05.167Z,16.90
2022-10-11T17:07:12.413Z,16.70
2022-10-11T17:12:16.723Z,16.30
2022-10-11T17:17:19.780Z,16.00
2022-10-11T17:22:21.917Z,15.60
2022-10-11T17:27:24.103Z,15.40
2022-10-11T17:32:26.352Z,15.20
2022-10-11T17:37:28.455Z,15.00
2022-10-11T17:42:30.646Z,14.80
2022-10-11T17:47:32.770Z,14.60
2022-10-11T17:52:34.929Z,14.50
2022-10-11T17:57:37.181Z,14.40
2022-10-11T18:02:40.375Z,14.20
2022-10-11T18:07:42.546Z,14.10
2022-10-11T18:12:44.645Z,14.00
2022-10-11T18:17:48.005Z,14.00
2022-10-11T18:22:50.604Z,13.90
2022-10-11T18:27:52.766Z,13.80
2022-10-11T18:32:54.967Z,13.70
2022-10-11T18:38:00.753Z,13.60
2022-10-11T18:43:03.210Z,13.50
2022-10-11T18:48:05.451Z,13.40
2022-10-11T18:53:07.603Z,13.30
2022-10-11T18:58:09.946Z,13.20
2022-10-11T19:03:12.055Z,13.20
2022-10-11T19:08:25.530Z,13.10
2022-10-11T19:13:27.599Z,13.00
2022-10-11T19:18:29.714Z,12.90
2022-10-11T19:23:36.291Z,12.80
2022-10-11T19:28:38.452Z,12.60
2022-10-11T19:33:40.874Z,12.50
2022-10-11T19:38:45.996Z,12.40
2022-10-11T19:43:48.668Z,12.20
2022-10-11T19:48:51.385Z,12.10
2022-10-11T19:53:57.452Z,12.10
2022-10-11T19:59:00.904Z,12.10
2022-10-11T20:04:08.141Z,12.00
2022-10-11T20:09:28.465Z,12.00
2022-10-11T20:14:31.406Z,11.80
2022-10-11T20:19:33.504Z,11.70
2022-10-11T20:24:35.902Z,11.60
2022-10-11T20:29:37.984Z,11.40
2022-10-11T20:34:40.225Z,11.50
2022-10-11T20:39:42.314Z,11.40
2022-10-11T20:44:44.599Z,11.30
2022-10-11T20:49:46.732Z,11.30
2022-10-11T20:54:48.865Z,11.30
2022-10-11T20:59:50.935Z,11.30
2022-10-11T21:04:53.020Z,11.30
2022-10-11T21:09:55.094Z,11.20
2022-10-11T21:14:57.160Z,11.20
2022-10-11T21:20:00.930Z,11.20
2022-10-11T21:25:03.251Z,11.10
2022-10-11T21:30:05.747Z,11.10
2022-10-11T21:35:07.897Z,11.10
2022-10-11T21:40:10.077Z,11.10
2022-10-11T21:45:12.278Z,11.10
2022-10-11T21:50:14.461Z,11.10
2022-10-11T21:55:16.640Z,11.10
2022-10-11T22:00:18.744Z,11.10
2022-10-11T22:05:20.837Z,11.00
2022-10-11T22:10:22.883Z,10.90
2022-10-11T22:15:24.976Z,10.90
2022-10-11T22:20:27.166Z,11.00
2022-10-11T22:25:29.654Z,11.00
2022-10-11T22:30:32.494Z,11.10
2022-10-11T22:35:38.057Z,11.10
2022-10-11T22:40:40.369Z,11.20
2022-10-11T22:45:42.828Z,11.20
2022-10-11T22:50:44.918Z,11.30
2022-10-11T22:55:47.695Z,11.30
2022-10-11T23:00:49.900Z,11.20
2022-10-11T23:05:58.140Z,11.10
2022-10-11T23:11:07.833Z,11.00
2022-10-11T23:16:12.167Z,11.00
2022-10-11T23:21:14.275Z,11.10
2022-10-11T23:26:17.036Z,11.10
2022-10-11T23:31:19.193Z,11.20
2022-10-11T23:36:24.299Z,11.10
2022-10-11T23:41:28.842Z,11.20
2022-10-11T23:46:30.951Z,11.20
2022-10-11T23:51:33.152Z,11.20
2022-10-11T23:56:35.215Z,11.30
